sensor_id;sensor_type;location;lat;lon;timestamp;P1;durP1;ratioP1;P2;durP2;ratioP2
13706;SDS011;6925;47.816;13.072;2022-07-06T06:30:38;3.63;;;1.77;;
13706;SDS011;6925;47.816;13.072;2022-07-06T08:31:54;1.60;;;1.50;;
13706;SDS011;6925;47.816;13.072;2022-07-06T08:48:43;2.33;;;1.50;;
13706;SDS011;6925;47.816;13.072;2022-07-06T08:51:12;1.60;;;1.50;;
13706;SDS011;6925;47.816;13.072;2022-07-06T08:53:41;2.10;;;1.48;;
13706;SDS011;6925;47.816;13.072;2022-07-06T08:56:11;1.98;;;1.55;;
13706;SDS011;6925;47.816;13.072;2022-07-06T08:58:41;3.85;;;1.42;;
13706;SDS011;6925;47.816;13.072;2022-07-06T09:01:10;1.40;;;1.30;;
13706;SDS011;6925;47.816;13.072;2022-07-06T09:03:44;1.67;;;1.20;;
13706;SDS011;6925;47.816;13.072;2022-07-06T09:06:14;1.33;;;1.10;;
13706;SDS011;6925;47.816;13.072;2022-07-06T09:08:46;1.88;;;1.30;;
13706;SDS011;6925;47.816;13.072;2022-07-06T09:11:46;1.67;;;1.52;;
13706;SDS011;6925;47.816;13.072;2022-07-06T09:17:07;1.60;;;1.15;;
13706;SDS011;6925;47.816;13.072;2022-07-06T09:19:41;1.05;;;1.05;;
13706;SDS011;6925;47.816;13.072;2022-07-06T09:25:09;1.13;;;1.10;;
13706;SDS011;6925;47.816;13.072;2022-07-06T12:56:20;1.48;;;1.23;;
13706;SDS011;6925;47.816;13.072;2022-07-06T13:24:42;1.52;;;1.40;;
13706;SDS011;6925;47.816;13.072;2022-07-06T13:27:13;1.38;;;1.27;;
13706;SDS011;6925;47.816;13.072;2022-07-06T13:29:43;1.85;;;1.30;;
13706;SDS011;6925;47.816;13.072;2022-07-06T13:32:11;1.48;;;1.27;;
13706;SDS011;6925;47.816;13.072;2022-07-06T13:34:38;1.17;;;1.02;;
13706;SDS011;6925;47.816;13.072;2022-07-06T13:40:06;1.33;;;1.20;;
13706;SDS011;6925;47.816;13.072;2022-07-06T13:42:34;1.42;;;1.10;;
13706;SDS011;6925;47.816;13.072;2022-07-06T13:45:01;1.40;;;1.17;;
13706;SDS011;6925;47.816;13.072;2022-07-06T13:47:29;1.20;;;1.10;;
13706;SDS011;6925;47.816;13.072;2022-07-06T13:49:56;1.17;;;1.10;;
13706;SDS011;6925;47.816;13.072;2022-07-06T13:52:23;1.55;;;1.27;;
13706;SDS011;6925;47.816;13.072;2022-07-06T13:55:09;1.80;;;1.33;;
13706;SDS011;6925;47.816;13.072;2022-07-06T13:57:36;1.48;;;1.38;;
13706;SDS011;6925;47.816;13.072;2022-07-06T14:00:07;2.22;;;1.23;;
13706;SDS011;6925;47.816;13.072;2022-07-06T14:02:36;1.40;;;1.30;;
13706;SDS011;6925;47.816;13.072;2022-07-06T14:05:06;1.40;;;1.20;;
13706;SDS011;6925;47.816;13.072;2022-07-06T14:07:33;1.60;;;1.20;;
13706;SDS011;6925;47.816;13.072;2022-07-06T14:10:02;1.10;;;1.10;;
13706;SDS011;6925;47.816;13.072;2022-07-06T14:12:38;1.38;;;1.27;;
13706;SDS011;6925;47.816;13.072;2022-07-06T14:15:25;1.60;;;1.50;;
13706;SDS011;6925;47.816;13.072;2022-07-06T14:17:56;3.60;;;1.33;;
13706;SDS011;6925;47.816;13.072;2022-07-06T14:20:45;2.28;;;1.23;;
13706;SDS011;6925;47.816;13.072;2022-07-06T14:23:29;1.30;;;1.20;;
13706;SDS011;6925;47.816;13.072;2022-07-06T14:26:16;1.02;;;1.00;;
13706;SDS011;6925;47.816;13.072;2022-07-06T14:28:52;1.17;;;1.08;;
13706;SDS011;6925;47.816;13.072;2022-07-06T14:32:02;1.23;;;1.20;;
13706;SDS011;6925;47.816;13.072;2022-07-06T14:34:29;1.52;;;1.42;;
13706;SDS011;6925;47.816;13.072;2022-07-06T14:37:03;1.33;;;1.23;;
13706;SDS011;6925;47.816;13.072;2022-07-06T14:39:33;3.05;;;1.40;;
13706;SDS011;6925;47.816;13.072;2022-07-06T14:42:03;1.60;;;1.20;;
13706;SDS011;6925;47.816;13.072;2022-07-06T14:44:34;1.60;;;1.30;;
13706;SDS011;6925;47.816;13.072;2022-07-06T14:47:05;2.35;;;1.27;;
13706;SDS011;6925;47.816;13.072;2022-07-06T14:56:24;1.58;;;1.48;;
13706;SDS011;6925;47.816;13.072;2022-07-06T14:59:42;1.67;;;1.23;;
13706;SDS011;6925;47.816;13.072;2022-07-06T15:02:23;1.42;;;1.33;;
13706;SDS011;6925;47.816;13.072;2022-07-06T15:04:51;4.50;;;1.40;;
13706;SDS011;6925;47.816;13.072;2022-07-06T15:07:21;1.40;;;1.27;;
13706;SDS011;6925;47.816;13.072;2022-07-06T15:09:49;2.60;;;1.35;;
13706;SDS011;6925;47.816;13.072;2022-07-06T15:12:17;1.50;;;1.30;;
13706;SDS011;6925;47.816;13.072;2022-07-06T15:14:46;1.80;;;1.55;;
13706;SDS011;6925;47.816;13.072;2022-07-06T15:17:13;1.27;;;1.17;;
13706;SDS011;6925;47.816;13.072;2022-07-06T15:19:41;2.65;;;1.23;;
13706;SDS011;6925;47.816;13.072;2022-07-06T15:22:09;1.80;;;1.70;;
13706;SDS011;6925;47.816;13.072;2022-07-06T15:24:37;1.40;;;1.30;;
13706;SDS011;6925;47.816;13.072;2022-07-06T15:27:05;1.38;;;1.23;;
13706;SDS011;6925;47.816;13.072;2022-07-06T15:29:33;1.60;;;1.30;;
13706;SDS011;6925;47.816;13.072;2022-07-06T15:32:02;2.05;;;1.63;;
13706;SDS011;6925;47.816;13.072;2022-07-06T15:34:32;2.50;;;1.67;;
13706;SDS011;6925;47.816;13.072;2022-07-06T15:39:53;1.70;;;1.60;;
13706;SDS011;6925;47.816;13.072;2022-07-06T15:42:21;1.67;;;1.42;;
13706;SDS011;6925;47.816;13.072;2022-07-06T15:44:49;1.67;;;1.58;;
13706;SDS011;6925;47.816;13.072;2022-07-06T15:47:19;2.50;;;1.50;;
13706;SDS011;6925;47.816;13.072;2022-07-06T15:49:48;1.50;;;1.40;;
13706;SDS011;6925;47.816;13.072;2022-07-06T15:52:17;1.33;;;1.23;;
13706;SDS011;6925;47.816;13.072;2022-07-06T15:54:44;2.38;;;1.42;;
13706;SDS011;6925;47.816;13.072;2022-07-06T15:57:15;1.88;;;1.35;;
13706;SDS011;6925;47.816;13.072;2022-07-06T15:59:58;2.33;;;1.15;;
13706;SDS011;6925;47.816;13.072;2022-07-06T16:02:37;2.28;;;1.63;;
13706;SDS011;6925;47.816;13.072;2022-07-06T16:05:05;1.55;;;1.45;;
13706;SDS011;6925;47.816;13.072;2022-07-06T16:07:33;1.48;;;1.10;;
13706;SDS011;6925;47.816;13.072;2022-07-06T16:10:17;1.70;;;1.60;;
13706;SDS011;6925;47.816;13.072;2022-07-06T16:12:50;1.90;;;1.63;;
13706;SDS011;6925;47.816;13.072;2022-07-06T16:46:22;1.88;;;1.77;;
13706;SDS011;6925;47.816;13.072;2022-07-06T16:48:51;1.55;;;1.45;;
13706;SDS011;6925;47.816;13.072;2022-07-06T16:51:18;1.70;;;1.48;;
13706;SDS011;6925;47.816;13.072;2022-07-06T16:53:45;1.90;;;1.60;;
13706;SDS011;6925;47.816;13.072;2022-07-06T16:56:13;3.95;;;2.17;;
13706;SDS011;6925;47.816;13.072;2022-07-06T16:58:40;1.52;;;1.42;;
13706;SDS011;6925;47.816;13.072;2022-07-06T17:01:08;1.75;;;1.27;;
13706;SDS011;6925;47.816;13.072;2022-07-06T17:03:37;2.45;;;1.60;;
13706;SDS011;6925;47.816;13.072;2022-07-06T17:06:04;2.83;;;1.60;;
13706;SDS011;6925;47.816;13.072;2022-07-06T17:08:33;2.42;;;1.50;;
13706;SDS011;6925;47.816;13.072;2022-07-06T17:11:01;2.10;;;1.90;;
13706;SDS011;6925;47.816;13.072;2022-07-06T17:13:28;2.45;;;1.52;;
13706;SDS011;6925;47.816;13.072;2022-07-06T17:15:56;1.73;;;1.50;;
13706;SDS011;6925;47.816;13.072;2022-07-06T17:18:25;1.75;;;1.63;;
13706;SDS011;6925;47.816;13.072;2022-07-06T17:20:54;5.13;;;1.80;;
13706;SDS011;6925;47.816;13.072;2022-07-06T17:23:24;1.85;;;1.67;;
13706;SDS011;6925;47.816;13.072;2022-07-06T17:36:23;3.63;;;1.40;;
13706;SDS011;6925;47.816;13.072;2022-07-06T17:38:51;3.42;;;1.85;;
13706;SDS011;6925;47.816;13.072;2022-07-06T17:41:20;3.58;;;1.65;;
13706;SDS011;6925;47.816;13.072;2022-07-06T17:46:20;2.10;;;1.58;;
13706;SDS011;6925;47.816;13.072;2022-07-06T17:48:48;1.40;;;1.30;;
13706;SDS011;6925;47.816;13.072;2022-07-06T17:51:15;1.60;;;1.50;;
13706;SDS011;6925;47.816;13.072;2022-07-06T17:53:45;2.75;;;1.50;;
13706;SDS011;6925;47.816;13.072;2022-07-06T17:56:26;2.15;;;1.40;;
13706;SDS011;6925;47.816;13.072;2022-07-06T17:58:54;2.35;;;1.55;;
13706;SDS011;6925;47.816;13.072;2022-07-06T18:01:22;2.15;;;1.60;;
13706;SDS011;6925;47.816;13.072;2022-07-06T18:03:49;1.65;;;1.25;;
13706;SDS011;6925;47.816;13.072;2022-07-06T18:06:17;2.00;;;1.45;;
13706;SDS011;6925;47.816;13.072;2022-07-06T18:08:46;3.22;;;1.63;;
13706;SDS011;6925;47.816;13.072;2022-07-06T18:11:14;2.00;;;1.83;;
13706;SDS011;6925;47.816;13.072;2022-07-06T18:13:41;2.33;;;1.50;;
13706;SDS011;6925;47.816;13.072;2022-07-06T18:16:09;2.92;;;1.25;;
13706;SDS011;6925;47.816;13.072;2022-07-06T18:18:36;2.55;;;1.55;;
13706;SDS011;6925;47.816;13.072;2022-07-06T18:21:04;2.25;;;2.05;;
13706;SDS011;6925;47.816;13.072;2022-07-06T18:23:33;1.60;;;1.50;;
13706;SDS011;6925;47.816;13.072;2022-07-06T18:26:01;2.95;;;1.65;;
13706;SDS011;6925;47.816;13.072;2022-07-06T18:28:31;1.75;;;1.65;;
13706;SDS011;6925;47.816;13.072;2022-07-06T18:30:59;3.17;;;1.67;;
13706;SDS011;6925;47.816;13.072;2022-07-06T18:33:26;2.15;;;1.90;;
13706;SDS011;6925;47.816;13.072;2022-07-06T18:35:55;1.35;;;1.25;;
13706;SDS011;6925;47.816;13.072;2022-07-06T18:38:23;2.63;;;1.83;;
13706;SDS011;6925;47.816;13.072;2022-07-06T18:40:51;2.42;;;1.77;;
13706;SDS011;6925;47.816;13.072;2022-07-06T18:43:24;2.25;;;1.77;;
13706;SDS011;6925;47.816;13.072;2022-07-06T18:45:53;3.33;;;1.90;;
13706;SDS011;6925;47.816;13.072;2022-07-06T18:48:22;1.60;;;1.50;;
13706;SDS011;6925;47.816;13.072;2022-07-06T18:50:49;1.95;;;1.70;;
13706;SDS011;6925;47.816;13.072;2022-07-06T18:53:17;1.92;;;1.70;;
13706;SDS011;6925;47.816;13.072;2022-07-06T18:55:45;1.80;;;1.70;;
13706;SDS011;6925;47.816;13.072;2022-07-06T18:58:12;2.88;;;1.67;;
13706;SDS011;6925;47.816;13.072;2022-07-06T19:00:41;1.95;;;1.45;;
13706;SDS011;6925;47.816;13.072;2022-07-06T19:03:09;2.03;;;1.80;;
13706;SDS011;6925;47.816;13.072;2022-07-06T19:05:36;2.00;;;1.73;;
13706;SDS011;6925;47.816;13.072;2022-07-06T19:08:04;1.48;;;1.38;;
13706;SDS011;6925;47.816;13.072;2022-07-06T19:10:32;1.60;;;1.50;;
13706;SDS011;6925;47.816;13.072;2022-07-06T19:12:59;2.97;;;1.90;;
13706;SDS011;6925;47.816;13.072;2022-07-06T19:15:28;1.73;;;1.63;;
13706;SDS011;6925;47.816;13.072;2022-07-06T19:17:58;1.70;;;1.60;;
13706;SDS011;6925;47.816;13.072;2022-07-06T19:20:25;2.60;;;1.88;;
13706;SDS011;6925;47.816;13.072;2022-07-06T19:22:54;1.77;;;1.67;;
13706;SDS011;6925;47.816;13.072;2022-07-06T19:25:24;2.30;;;1.60;;
13706;SDS011;6925;47.816;13.072;2022-07-06T19:27:51;3.45;;;1.35;;
13706;SDS011;6925;47.816;13.072;2022-07-06T19:30:19;3.47;;;1.83;;
13706;SDS011;6925;47.816;13.072;2022-07-06T19:32:47;2.17;;;1.73;;
13706;SDS011;6925;47.816;13.072;2022-07-06T19:35:17;1.88;;;1.48;;
13706;SDS011;6925;47.816;13.072;2022-07-06T19:37:44;2.15;;;1.58;;
13706;SDS011;6925;47.816;13.072;2022-07-06T19:40:14;3.42;;;2.08;;
13706;SDS011;6925;47.816;13.072;2022-07-06T19:42:41;1.80;;;1.70;;
13706;SDS011;6925;47.816;13.072;2022-07-06T19:45:09;3.33;;;1.70;;
13706;SDS011;6925;47.816;13.072;2022-07-06T19:47:38;2.15;;;1.50;;
13706;SDS011;6925;47.816;13.072;2022-07-06T19:50:06;1.95;;;1.77;;
13706;SDS011;6925;47.816;13.072;2022-07-06T19:52:36;1.52;;;1.42;;
13706;SDS011;6925;47.816;13.072;2022-07-06T19:55:04;1.45;;;1.35;;
13706;SDS011;6925;47.816;13.072;2022-07-06T19:57:32;1.63;;;1.52;;
13706;SDS011;6925;47.816;13.072;2022-07-06T20:00:00;1.55;;;1.45;;
13706;SDS011;6925;47.816;13.072;2022-07-06T20:02:27;2.38;;;1.77;;
13706;SDS011;6925;47.816;13.072;2022-07-06T20:04:57;4.97;;;2.17;;
13706;SDS011;6925;47.816;13.072;2022-07-06T20:07:25;2.53;;;1.67;;
13706;SDS011;6925;47.816;13.072;2022-07-06T20:09:54;1.70;;;1.60;;
13706;SDS011;6925;47.816;13.072;2022-07-06T20:12:22;2.50;;;1.83;;
13706;SDS011;6925;47.816;13.072;2022-07-06T20:14:51;1.60;;;1.50;;
13706;SDS011;6925;47.816;13.072;2022-07-06T20:17:19;1.70;;;1.60;;
13706;SDS011;6925;47.816;13.072;2022-07-06T20:19:47;6.10;;;1.80;;
13706;SDS011;6925;47.816;13.072;2022-07-06T20:22:14;4.53;;;1.92;;
13706;SDS011;6925;47.816;13.072;2022-07-06T20:24:42;2.95;;;1.98;;
13706;SDS011;6925;47.816;13.072;2022-07-06T20:27:11;1.83;;;1.73;;
13706;SDS011;6925;47.816;13.072;2022-07-06T20:29:40;2.67;;;1.75;;
13706;SDS011;6925;47.816;13.072;2022-07-06T20:32:08;3.17;;;1.83;;
13706;SDS011;6925;47.816;13.072;2022-07-06T20:34:35;1.70;;;1.50;;
13706;SDS011;6925;47.816;13.072;2022-07-06T20:37:03;2.10;;;1.83;;
13706;SDS011;6925;47.816;13.072;2022-07-06T20:39:31;2.33;;;1.80;;
13706;SDS011;6925;47.816;13.072;2022-07-06T20:41:58;1.60;;;1.50;;
13706;SDS011;6925;47.816;13.072;2022-07-06T20:44:27;2.15;;;1.80;;
13706;SDS011;6925;47.816;13.072;2022-07-06T20:46:55;2.35;;;1.65;;
13706;SDS011;6925;47.816;13.072;2022-07-06T20:49:22;4.57;;;1.77;;
13706;SDS011;6925;47.816;13.072;2022-07-06T20:51:49;2.88;;;2.20;;
13706;SDS011;6925;47.816;13.072;2022-07-06T20:54:19;1.90;;;1.80;;
13706;SDS011;6925;47.816;13.072;2022-07-06T20:56:46;3.00;;;1.95;;
13706;SDS011;6925;47.816;13.072;2022-07-06T20:59:14;3.38;;;2.35;;
13706;SDS011;6925;47.816;13.072;2022-07-06T21:01:43;2.85;;;2.00;;
13706;SDS011;6925;47.816;13.072;2022-07-06T21:04:10;2.67;;;2.22;;
13706;SDS011;6925;47.816;13.072;2022-07-06T21:06:37;2.15;;;2.00;;
13706;SDS011;6925;47.816;13.072;2022-07-06T21:09:10;2.78;;;2.13;;
13706;SDS011;6925;47.816;13.072;2022-07-06T21:11:50;2.65;;;1.80;;
13706;SDS011;6925;47.816;13.072;2022-07-06T21:14:53;4.20;;;1.85;;
13706;SDS011;6925;47.816;13.072;2022-07-06T21:17:22;2.10;;;1.90;;
13706;SDS011;6925;47.816;13.072;2022-07-06T21:19:49;1.85;;;1.70;;
13706;SDS011;6925;47.816;13.072;2022-07-06T21:22:16;3.97;;;2.10;;
13706;SDS011;6925;47.816;13.072;2022-07-06T21:24:44;1.90;;;1.80;;
13706;SDS011;6925;47.816;13.072;2022-07-06T21:27:11;1.85;;;1.75;;
13706;SDS011;6925;47.816;13.072;2022-07-06T21:29:39;1.98;;;1.88;;
13706;SDS011;6925;47.816;13.072;2022-07-06T21:32:07;2.60;;;2.17;;
13706;SDS011;6925;47.816;13.072;2022-07-06T21:34:38;1.77;;;1.67;;
13706;SDS011;6925;47.816;13.072;2022-07-06T21:37:10;3.75;;;1.98;;
13706;SDS011;6925;47.816;13.072;2022-07-06T21:39:52;2.95;;;2.20;;
13706;SDS011;6925;47.816;13.072;2022-07-06T21:42:20;2.50;;;1.90;;
13706;SDS011;6925;47.816;13.072;2022-07-06T21:44:49;1.98;;;1.73;;
13706;SDS011;6925;47.816;13.072;2022-07-06T21:47:17;2.75;;;2.00;;
13706;SDS011;6925;47.816;13.072;2022-07-06T21:49:46;3.25;;;1.67;;
13706;SDS011;6925;47.816;13.072;2022-07-06T21:52:13;2.10;;;2.00;;
13706;SDS011;6925;47.816;13.072;2022-07-06T21:54:41;2.00;;;1.90;;
13706;SDS011;6925;47.816;13.072;2022-07-06T21:57:08;4.03;;;2.22;;
13706;SDS011;6925;47.816;13.072;2022-07-06T21:59:36;2.30;;;1.98;;
13706;SDS011;6925;47.816;13.072;2022-07-06T22:02:08;1.92;;;1.83;;
13706;SDS011;6925;47.816;13.072;2022-07-06T22:04:35;2.38;;;1.80;;
13706;SDS011;6925;47.816;13.072;2022-07-06T22:07:06;2.10;;;2.00;;
13706;SDS011;6925;47.816;13.072;2022-07-06T22:09:38;2.00;;;1.90;;
13706;SDS011;6925;47.816;13.072;2022-07-06T22:12:11;1.88;;;1.65;;
13706;SDS011;6925;47.816;13.072;2022-07-06T22:14:48;2.38;;;2.10;;
13706;SDS011;6925;47.816;13.072;2022-07-06T22:17:16;2.15;;;1.95;;
13706;SDS011;6925;47.816;13.072;2022-07-06T22:19:43;2.10;;;1.90;;
13706;SDS011;6925;47.816;13.072;2022-07-06T22:22:12;2.00;;;1.90;;
13706;SDS011;6925;47.816;13.072;2022-07-06T22:24:41;6.35;;;2.10;;
13706;SDS011;6925;47.816;13.072;2022-07-06T22:27:08;2.22;;;2.10;;
13706;SDS011;6925;47.816;13.072;2022-07-06T22:29:36;3.67;;;2.45;;
13706;SDS011;6925;47.816;13.072;2022-07-06T22:32:03;2.00;;;1.90;;
13706;SDS011;6925;47.816;13.072;2022-07-06T22:34:31;2.05;;;1.85;;
13706;SDS011;6925;47.816;13.072;2022-07-06T22:36:59;2.03;;;1.80;;
13706;SDS011;6925;47.816;13.072;2022-07-06T22:39:27;2.25;;;2.10;;
13706;SDS011;6925;47.816;13.072;2022-07-06T22:41:55;2.30;;;2.08;;
13706;SDS011;6925;47.816;13.072;2022-07-06T22:44:23;4.07;;;2.40;;
13706;SDS011;6925;47.816;13.072;2022-07-06T22:46:50;2.58;;;2.08;;
13706;SDS011;6925;47.816;13.072;2022-07-06T22:49:17;3.03;;;2.10;;
13706;SDS011;6925;47.816;13.072;2022-07-06T22:51:44;2.10;;;2.00;;
13706;SDS011;6925;47.816;13.072;2022-07-06T22:56:58;3.05;;;2.30;;
13706;SDS011;6925;47.816;13.072;2022-07-06T22:59:32;2.78;;;2.35;;
13706;SDS011;6925;47.816;13.072;2022-07-06T23:02:04;2.17;;;2.00;;
13706;SDS011;6925;47.816;13.072;2022-07-06T23:04:32;2.15;;;2.00;;
13706;SDS011;6925;47.816;13.072;2022-07-06T23:13:52;1.85;;;1.75;;
13706;SDS011;6925;47.816;13.072;2022-07-06T23:35:02;2.67;;;2.47;;
13706;SDS011;6925;47.816;13.072;2022-07-06T23:37:30;2.47;;;2.28;;
13706;SDS011;6925;47.816;13.072;2022-07-06T23:39:59;4.10;;;2.40;;
13706;SDS011;6925;47.816;13.072;2022-07-06T23:42:27;2.50;;;2.22;;
13706;SDS011;6925;47.816;13.072;2022-07-06T23:44:57;3.75;;;2.35;;
13706;SDS011;6925;47.816;13.072;2022-07-06T23:47:24;2.67;;;2.47;;
13706;SDS011;6925;47.816;13.072;2022-07-06T23:49:56;3.40;;;2.28;;
13706;SDS011;6925;47.816;13.072;2022-07-06T23:52:34;3.00;;;2.45;;
13706;SDS011;6925;47.816;13.072;2022-07-06T23:55:06;3.08;;;2.53;;
